Time;durP1;ratioP1;P1;durP2;ratioP2;P2;SDS_P1;SDS_P2;PMS_P1;PMS_P2;Temp;Humidity;BMP_temperature;BMP_pressure;BME280_temperature;BME280_humidity;BME280_pressure;Samples;Min_cycle;Max_cycle;Signal;HPM_P1;HPM_P2
2023/03/08 00:00:58;;;;;;;2.13;1.70;;;;;;;-145.03;100.00;77252.50;4920964;29;20203;-73
2023/03/08 00:03:25;;;;;;;2.03;1.50;;;;;;;-145.03;100.00;77248.53;4930980;29;20223;-73
2023/03/08 00:05:52;;;;;;;2.40;1.57;;;;;;;-145.03;100.00;77242.53;4933880;29;20238;-74
2023/03/08 00:08:20;;;;;;;2.33;1.73;;;;;;;-145.03;100.00;77238.53;4934140;29;20676;-73
2023/03/08 00:10:46;;;;;;;1.50;1.40;;;;;;;-145.03;100.00;77244.53;4922685;29;20252;-73
2023/03/08 00:13:13;;;;;;;1.93;1.73;;;;;;;-145.03;100.00;77246.53;4917339;29;20305;-73
2023/03/08 00:15:40;;;;;;;1.90;1.70;;;;;;;-145.03;100.00;77244.53;4913704;29;20273;-73
2023/03/08 00:18:06;;;;;;;1.93;1.57;;;;;;;-145.03;100.00;77248.53;4932098;29;20204;-73
2023/03/08 00:20:34;;;;;;;4.03;1.47;;;;;;;-145.03;100.00;77254.50;4920962;29;20845;-73
2023/03/08 00:23:01;;;;;;;1.87;1.50;;;;;;;-145.03;100.00;77258.50;4933511;29;20201;-73
2023/03/08 00:25:29;;;;;;;2.07;1.50;;;;;;;-145.03;100.00;77254.50;4916439;29;20223;-73
2023/03/08 00:27:55;;;;;;;1.40;1.30;;;;;;;-145.03;100.00;77258.50;4937206;29;20202;-73
2023/03/08 00:30:22;;;;;;;2.23;1.67;;;;;;;-145.03;100.00;77260.50;4933739;29;20686;-73
2023/03/08 00:32:48;;;;;;;1.80;1.57;;;;;;;-145.03;100.00;77268.47;4923926;29;20279;-74
2023/03/08 00:35:15;;;;;;;2.03;1.70;;;;;;;-145.03;100.00;77282.44;4921374;29;20317;-73
2023/03/08 00:37:41;;;;;;;1.37;1.20;;;;;;;-145.03;100.00;77282.44;4928529;29;20208;-73
2023/03/08 00:40:09;;;;;;;5.17;1.70;;;;;;;-145.03;100.00;77282.44;4924426;29;20553;-73
2023/03/08 00:42:37;;;;;;;1.73;1.30;;;;;;;-145.03;100.00;77282.44;4924195;29;20214;-73
2023/03/08 00:45:04;;;;;;;2.43;2.20;;;;;;;-145.03;100.00;77286.44;4939530;28;20222;-73
2023/03/08 00:47:31;;;;;;;2.30;1.73;;;;;;;-145.03;100.00;77282.44;4923056;29;20204;-73
2023/03/08 00:49:58;;;;;;;5.87;1.37;;;;;;;-145.03;100.00;77284.44;4941429;29;20216;-73
2023/03/08 00:52:25;;;;;;;1.77;1.63;;;;;;;-145.03;100.00;77286.44;4921466;29;20781;-73
2023/03/08 00:54:51;;;;;;;2.00;1.50;;;;;;;-145.03;100.00;77284.44;4956806;22;20884;-77
2023/03/08 00:57:18;;;;;;;2.87;1.50;;;;;;;-145.03;100.00;77284.44;4975684;28;20849;-77
2023/03/08 00:59:46;;;;;;;2.17;1.60;;;;;;;-145.03;100.00;77292.44;4975570;28;20201;-77
2023/03/08 01:02:13;;;;;;;2.37;1.63;;;;;;;-145.03;100.00;77292.44;4970318;28;20253;-77
2023/03/08 01:04:39;;;;;;;5.33;1.53;;;;;;;-145.03;100.00;77290.44;4977476;28;20634;-76
2023/03/08 01:07:06;;;;;;;1.60;1.47;;;;;;;-145.03;100.00;77294.44;5011837;28;20200;-76
2023/03/08 01:09:32;;;;;;;2.53;1.70;;;;;;;-145.03;100.00;77290.44;4987683;28;20192;-76
2023/03/08 01:11:59;;;;;;;4.77;1.90;;;;;;;-145.03;100.00;77294.44;4997257;28;20204;-74
2023/03/08 01:14:25;;;;;;;3.67;1.37;;;;;;;-145.03;100.00;77302.41;4987876;28;20299;-76
2023/03/08 01:16:53;;;;;;;4.83;1.80;;;;;;;-145.03;100.00;77308.41;5007684;28;21731;-76
2023/03/08 01:19:20;;;;;;;2.07;1.40;;;;;;;-145.03;100.00;77308.41;4993698;28;20656;-76
2023/03/08 01:21:46;;;;;;;3.97;1.60;;;;;;;-145.03;100.00;77300.41;5013114;28;20551;-76
2023/03/08 01:24:12;;;;;;;1.70;1.43;;;;;;;-145.03;100.00;77306.41;4993460;28;20319;-77
2023/03/08 01:26:39;;;;;;;2.73;1.90;;;;;;;-145.03;100.00;77308.41;4985875;28;20247;-76
2023/03/08 01:29:05;;;;;;;3.60;2.40;;;;;;;-145.03;100.00;77308.41;4990772;28;20203;-76
2023/03/08 01:31:34;;;;;;;4.03;1.87;;;;;;;-145.03;100.00;77310.41;4990511;28;20223;-75
2023/03/08 01:34:01;;;;;;;2.93;1.70;;;;;;;-145.03;100.00;77314.41;4984767;28;20233;-76
2023/03/08 01:36:28;;;;;;;3.20;2.07;;;;;;;-145.03;100.00;77320.38;5011866;28;20225;-75
2023/03/08 01:38:55;;;;;;;2.07;1.80;;;;;;;-145.03;100.00;77324.38;5006373;28;20197;-76
2023/03/08 01:41:24;;;;;;;2.33;1.50;;;;;;;-145.03;100.00;77328.38;5004931;28;20548;-76
2023/03/08 01:43:51;;;;;;;2.33;1.97;;;;;;;-145.03;100.00;77334.34;5004674;28;20202;-76
2023/03/08 01:46:22;;;;;;;4.13;1.93;;;;;;;-145.03;100.00;77332.38;4992744;28;20223;-76
2023/03/08 01:48:56;;;;;;;2.83;2.03;;;;;;;-145.03;100.00;77344.34;4989717;28;20209;-76
2023/03/08 01:51:31;;;;;;;4.43;2.17;;;;;;;-145.03;100.00;77338.34;4990850;28;20587;-76
2023/03/08 01:54:01;;;;;;;3.33;2.10;;;;;;;-145.03;100.00;77342.34;5006954;28;20193;-76
2023/03/08 01:56:29;;;;;;;4.67;2.03;;;;;;;-145.03;100.00;77344.34;5007162;28;20232;-75
2023/03/08 01:58:57;;;;;;;2.27;1.90;;;;;;;-145.03;100.00;77338.34;4993049;28;20209;-76
2023/03/08 02:01:24;;;;;;;2.17;1.80;;;;;;;-145.03;100.00;77334.34;4991649;28;20197;-76
2023/03/08 02:03:52;;;;;;;3.47;2.50;;;;;;;-145.03;100.00;77334.34;4992637;28;20192;-76
2023/03/08 02:06:21;;;;;;;2.40;1.83;;;;;;;-145.03;100.00;77330.38;4988837;28;20223;-75
2023/03/08 02:08:49;;;;;;;3.13;2.10;;;;;;;-145.03;100.00;77336.34;4993245;28;20215;-76
2023/03/08 02:11:18;;;;;;;3.00;2.13;;;;;;;-145.03;100.00;77332.38;4991443;28;20208;-75
2023/03/08 02:13:44;;;;;;;2.57;2.23;;;;;;;-145.03;100.00;77334.34;5010602;28;20566;-75
2023/03/08 02:16:14;;;;;;;3.27;2.33;;;;;;;-145.03;100.00;77332.38;4989738;28;20266;-76
2023/03/08 02:18:53;;;;;;;4.33;2.53;;;;;;;-145.03;100.00;77326.38;4992883;28;20250;-76
2023/03/08 02:21:21;;;;;;;3.77;2.70;;;;;;;-145.03;100.00;77330.38;4993036;28;20287;-76
2023/03/08 02:23:49;;;;;;;4.50;2.73;;;;;;;-145.03;100.00;77330.38;4991429;28;20201;-74
2023/03/08 02:26:17;;;;;;;4.13;2.77;;;;;;;-145.03;100.00;77326.38;4988616;28;20221;-74
2023/03/08 02:28:43;;;;;;;4.93;3.10;;;;;;;-145.03;100.00;77326.38;4980949;28;20197;-75
2023/03/08 02:31:10;;;;;;;6.67;3.63;;;;;;;-145.03;100.00;77330.38;5008144;28;20215;-75
2023/03/08 02:33:37;;;;;;;6.73;3.00;;;;;;;-145.03;100.00;77324.38;4996879;28;20259;-75
2023/03/08 02:36:06;;;;;;;4.37;3.00;;;;;;;-145.03;100.00;77324.38;5008088;28;20701;-75
2023/03/08 02:38:33;;;;;;;5.37;3.67;;;;;;;-145.03;100.00;77322.38;5004678;28;20240;-76
2023/03/08 02:41:01;;;;;;;8.13;3.10;;;;;;;-145.03;100.00;77324.38;5005675;28;20201;-75
2023/03/08 02:43:28;;;;;;;4.83;3.47;;;;;;;-145.03;100.00;77326.38;5006536;28;20207;-74
2023/03/08 02:45:54;;;;;;;6.40;3.50;;;;;;;-145.03;100.00;77336.34;5001659;28;20693;-75
2023/03/08 02:48:21;;;;;;;6.17;3.27;;;;;;;-145.03;100.00;77332.38;5008257;28;20703;-75
2023/03/08 02:50:47;;;;;;;4.43;3.03;;;;;;;-145.03;100.00;77330.38;4990825;28;20592;-75
2023/03/08 02:53:13;;;;;;;4.97;3.37;;;;;;;-145.03;100.00;77332.38;4989150;28;20742;-75
2023/03/08 02:55:40;;;;;;;5.70;3.00;;;;;;;-145.03;100.00;77330.38;5005187;28;20601;-74
2023/03/08 02:58:11;;;;;;;6.33;3.93;;;;;;;-145.03;100.00;77330.38;4992160;28;20681;-75
2023/03/08 03:00:38;;;;;;;5.20;3.33;;;;;;;-145.03;100.00;77334.34;4990325;28;20211;-75
2023/03/08 03:03:05;;;;;;;6.57;3.77;;;;;;;-145.03;100.00;77336.34;4994568;28;20270;-74
2023/03/08 03:05:34;;;;;;;7.17;3.70;;;;;;;-145.03;100.00;77336.34;4991334;28;20252;-75
2023/03/08 03:08:04;;;;;;;4.70;3.20;;;;;;;-145.03;100.00;77334.34;4990399;28;20905;-74
2023/03/08 03:10:30;;;;;;;6.17;3.87;;;;;;;-145.03;100.00;77346.34;4987114;28;20741;-76
2023/03/08 03:12:57;;;;;;;7.73;4.57;;;;;;;-145.03;100.00;77354.31;4987752;28;20224;-73
2023/03/08 03:15:29;;;;;;;9.70;3.77;;;;;;;-145.03;100.00;77354.31;4988125;28;20692;-75
2023/03/08 03:17:58;;;;;;;5.57;3.50;;;;;;;-145.03;100.00;77342.34;4991710;28;20571;-75
2023/03/08 03:20:25;;;;;;;4.97;3.53;;;;;;;-145.03;100.00;77350.31;4989990;28;20236;-75
2023/03/08 03:22:51;;;;;;;5.13;3.37;;;;;;;-145.03;100.00;77340.34;4991072;28;20197;-74
2023/03/08 03:25:22;;;;;;;10.37;4.17;;;;;;;-145.03;100.00;77346.34;4988266;28;20603;-75
2023/03/08 03:27:50;;;;;;;5.73;3.73;;;;;;;-145.03;100.00;77350.31;4992385;28;20251;-75
2023/03/08 03:30:18;;;;;;;4.90;3.33;;;;;;;-145.03;100.00;77354.31;5013328;28;20636;-73
2023/03/08 03:32:46;;;;;;;7.83;3.97;;;;;;;-145.03;100.00;77358.31;4989218;28;20196;-74
2023/03/08 03:35:16;;;;;;;5.70;3.67;;;;;;;-145.03;100.00;77358.31;4990952;28;20220;-75
2023/03/08 03:37:43;;;;;;;6.80;4.30;;;;;;;-145.03;100.00;77372.28;4989633;28;20621;-75
2023/03/08 03:40:12;;;;;;;6.33;4.03;;;;;;;-145.03;100.00;77380.28;4996426;28;20196;-75
2023/03/08 03:42:39;;;;;;;4.93;3.13;;;;;;;-145.03;100.00;77384.28;4990392;28;20291;-75
2023/03/08 03:45:11;;;;;;;6.80;3.70;;;;;;;-145.03;100.00;77388.25;4992894;28;20223;-75
2023/03/08 03:47:37;;;;;;;7.40;3.67;;;;;;;-145.03;100.00;77396.25;4988783;28;20296;-76
2023/03/08 03:50:09;;;;;;;6.43;3.70;;;;;;;-145.03;100.00;77406.22;4993291;28;20188;-75
2023/03/08 03:52:49;;;;;;;6.67;3.90;;;;;;;-145.03;100.00;77412.22;4988287;28;20512;-77
2023/03/08 03:55:15;;;;;;;5.27;3.60;;;;;;;-145.03;100.00;77428.19;4994963;28;20711;-77
2023/03/08 03:57:43;;;;;;;7.03;3.87;;;;;;;-145.03;100.00;77446.16;4990545;28;20204;-77
2023/03/08 04:00:14;;;;;;;5.50;3.23;;;;;;;-145.03;100.00;77460.13;4989362;28;20260;-77
2023/03/08 04:02:41;;;;;;;6.17;3.57;;;;;;;-145.03;100.00;77464.13;5005656;28;20597;-77
2023/03/08 04:05:12;;;;;;;9.60;3.90;;;;;;;-145.03;100.00;77476.09;4994417;28;20631;-75
2023/03/08 04:07:38;;;;;;;7.30;4.17;;;;;;;-145.03;100.00;77476.09;5007794;28;20195;-76
2023/03/08 04:10:07;;;;;;;5.73;3.43;;;;;;;-145.03;100.00;77472.09;5001073;28;20254;-74
2023/03/08 04:12:34;;;;;;;5.77;3.30;;;;;;;-145.03;100.00;77482.09;5002196;28;20209;-75
2023/03/08 04:15:01;;;;;;;8.20;3.70;;;;;;;-145.03;100.00;77476.09;4986230;28;20312;-75
2023/03/08 04:17:30;;;;;;;6.37;3.93;;;;;;;-145.03;100.00;77476.09;4993880;28;20203;-77
2023/03/08 04:19:56;;;;;;;5.40;3.47;;;;;;;-145.03;100.00;77474.09;4987136;28;20200;-76
2023/03/08 04:22:24;;;;;;;3.67;2.63;;;;;;;-145.03;100.00;77470.13;5005796;28;20201;-77
2023/03/08 04:24:53;;;;;;;6.30;3.60;;;;;;;-145.03;100.00;77472.09;4996528;28;20589;-78
2023/03/08 04:27:26;;;;;;;9.37;3.50;;;;;;;-145.03;100.00;77466.13;4997316;28;20680;-77
2023/03/08 04:29:53;;;;;;;6.03;3.73;;;;;;;-145.03;100.00;77472.09;4989062;28;20220;-77
2023/03/08 04:32:20;;;;;;;7.97;4.13;;;;;;;-145.03;100.00;77470.13;4992250;28;20392;-77
2023/03/08 04:34:52;;;;;;;10.37;3.77;;;;;;;-145.03;100.00;77474.09;4994623;28;20697;-77
2023/03/08 04:37:21;;;;;;;6.83;4.33;;;;;;;-145.03;100.00;77468.13;4996866;28;20668;-77
2023/03/08 04:39:53;;;;;;;7.40;3.73;;;;;;;-145.03;100.00;77466.13;4996620;28;20202;-77
2023/03/08 04:42:20;;;;;;;6.90;3.70;;;;;;;-145.03;100.00;77464.13;4990743;28;20193;-77
2023/03/08 04:44:47;;;;;;;9.00;4.00;;;;;;;-145.03;100.00;77458.13;4991087;28;20217;-76
2023/03/08 04:47:18;;;;;;;8.33;4.00;;;;;;;-145.03;100.00;77456.13;4997919;28;20200;-76
2023/03/08 04:49:45;;;;;;;6.27;4.00;;;;;;;-145.03;100.00;77450.16;4995516;28;20220;-77
2023/03/08 04:52:12;;;;;;;9.63;4.00;;;;;;;-145.03;100.00;77448.16;4995010;28;20311;-77
2023/03/08 04:54:40;;;;;;;4.90;3.60;;;;;;;-145.03;100.00;77460.13;5008535;28;20200;-76
2023/03/08 04:57:23;;;;;;;6.87;3.93;;;;;;;-145.03;100.00;77460.13;4992235;28;20203;-77
2023/03/08 04:59:53;;;;;;;6.93;3.97;;;;;;;-145.03;100.00;77466.13;4990043;28;20232;-75
2023/03/08 05:02:21;;;;;;;6.97;4.13;;;;;;;-145.03;100.00;77472.09;4985374;28;20202;-77
2023/03/08 05:04:48;;;;;;;9.33;4.03;;;;;;;-145.03;100.00;77472.09;5004716;28;20565;-75
2023/03/08 05:07:14;;;;;;;9.23;4.27;;;;;;;-145.03;100.00;77472.09;4987571;28;20235;-77
2023/03/08 05:09:41;;;;;;;9.93;4.33;;;;;;;-145.03;100.00;77470.13;4988068;28;20577;-77
2023/03/08 05:12:08;;;;;;;7.53;4.47;;;;;;;-145.03;100.00;77476.09;4988177;28;20883;-77
2023/03/08 05:15:03;;;;;;;9.97;4.27;;;;;;;-145.03;100.00;77476.09;5000265;28;20232;-76
2023/03/08 05:17:29;;;;;;;6.33;4.03;;;;;;;-145.03;100.00;77484.09;4993480;28;20204;-77
2023/03/08 05:19:56;;;;;;;9.83;4.03;;;;;;;-145.03;100.00;77486.09;4986367;28;20215;-77
2023/03/08 05:22:30;;;;;;;6.97;4.23;;;;;;;-145.03;100.00;77474.09;4984170;28;20739;-77
2023/03/08 05:24:58;;;;;;;10.17;4.10;;;;;;;-145.03;100.00;77482.09;4990075;28;20216;-77
2023/03/08 05:27:25;;;;;;;7.47;4.93;;;;;;;-145.03;100.00;77476.09;4986838;28;20205;-77
2023/03/08 05:29:52;;;;;;;11.30;5.10;;;;;;;-145.03;100.00;77470.13;5006088;28;20288;-77
2023/03/08 05:32:20;;;;;;;8.87;5.00;;;;;;;-145.03;100.00;77466.13;4991525;28;20308;-77
2023/03/08 05:34:47;;;;;;;7.03;4.20;;;;;;;-145.03;100.00;77454.16;4985274;28;20220;-77
2023/03/08 05:37:24;;;;;;;8.63;5.10;;;;;;;-145.03;100.00;77450.16;4986031;28;20192;-77
2023/03/08 05:39:52;;;;;;;7.23;4.50;;;;;;;-145.03;100.00;77448.16;4990508;28;20196;-77
2023/03/08 05:42:21;;;;;;;11.20;5.87;;;;;;;-145.03;100.00;77446.16;4984849;28;20201;-77
2023/03/08 05:44:48;;;;;;;10.47;5.20;;;;;;;-145.03;100.00;77436.19;4993045;28;20240;-74
2023/03/08 05:47:20;;;;;;;8.80;4.90;;;;;;;-145.03;100.00;77440.16;5001442;28;20640;-74
2023/03/08 05:49:47;;;;;;;10.73;5.10;;;;;;;-145.03;100.00;77442.16;5004069;28;20271;-76
2023/03/08 05:52:14;;;;;;;6.43;5.00;;;;;;;-145.03;100.00;77444.16;4982484;28;20216;-77
2023/03/08 05:54:41;;;;;;;10.00;5.50;;;;;;;-145.03;100.00;77444.16;4982594;28;20604;-76
2023/03/08 05:57:12;;;;;;;7.73;5.23;;;;;;;-145.03;100.00;77442.16;4983788;28;20705;-75
2023/03/08 05:59:39;;;;;;;11.47;5.20;;;;;;;-145.03;100.00;77440.16;4979657;28;20633;-76
2023/03/08 06:02:08;;;;;;;10.77;5.67;;;;;;;-145.03;100.00;77434.19;4986557;28;20370;-77
2023/03/08 06:04:56;;;;;;;9.57;4.57;;;;;;;-145.03;100.00;77436.19;4988752;28;20227;-76
2023/03/08 06:07:24;;;;;;;13.20;5.30;;;;;;;-145.03;100.00;77434.19;5007994;28;20199;-77
2023/03/08 06:10:05;;;;;;;9.07;4.53;;;;;;;-145.03;100.00;77440.16;4987301;28;20746;-77
2023/03/08 06:12:32;;;;;;;8.90;5.27;;;;;;;-145.03;100.00;77440.16;4990457;28;20225;-77
2023/03/08 06:15:02;;;;;;;9.37;5.50;;;;;;;-145.03;100.00;77438.16;5005981;28;20303;-76
2023/03/08 06:17:33;;;;;;;8.67;5.20;;;;;;;-145.03;100.00;77438.16;4987606;28;20200;-78
2023/03/08 06:20:01;;;;;;;9.10;5.43;;;;;;;-145.03;100.00;77434.19;4992120;28;20196;-77
2023/03/08 06:22:27;;;;;;;9.40;5.40;;;;;;;-145.03;100.00;77438.16;4995563;28;20201;-75
2023/03/08 06:24:54;;;;;;;15.80;6.57;;;;;;;-145.03;100.00;77428.19;5009834;28;20714;-75
2023/03/08 06:27:28;;;;;;;13.87;5.87;;;;;;;-145.03;100.00;77430.19;4993690;28;20214;-76
2023/03/08 06:29:57;;;;;;;14.03;6.37;;;;;;;-145.03;100.00;77430.19;4996618;28;20665;-76
2023/03/08 06:32:23;;;;;;;13.90;5.70;;;;;;;-145.03;100.00;77432.19;4995373;28;20294;-76
2023/03/08 06:34:50;;;;;;;11.43;6.37;;;;;;;-145.03;100.00;77432.19;4994595;28;20216;-76
2023/03/08 06:37:18;;;;;;;12.83;6.43;;;;;;;-145.03;100.00;77422.19;5003179;28;20205;-76
2023/03/08 06:39:45;;;;;;;14.07;6.20;;;;;;;-145.03;100.00;77418.22;5014241;28;20193;-76
2023/03/08 06:42:11;;;;;;;13.50;6.13;;;;;;;-145.03;100.00;77416.22;4993700;28;20192;-77
2023/03/08 06:44:38;;;;;;;12.40;6.03;;;;;;;-145.03;100.00;77414.22;4991808;28;20205;-76
2023/03/08 06:47:05;;;;;;;10.60;6.53;;;;;;;-145.03;100.00;77424.19;4991703;28;20212;-76
2023/03/08 06:49:31;;;;;;;11.10;5.97;;;;;;;-145.03;100.00;77422.19;4993683;28;20275;-76
2023/03/08 06:51:58;;;;;;;12.23;6.27;;;;;;;-145.03;100.00;77414.22;4987771;28;20216;-74
2023/03/08 06:54:26;;;;;;;14.73;6.57;;;;;;;-145.03;100.00;77416.22;5010846;28;20304;-75
2023/03/08 06:56:52;;;;;;;14.97;7.13;;;;;;;-145.03;100.00;77426.19;5010549;28;20209;-75
2023/03/08 06:59:18;;;;;;;13.60;6.90;;;;;;;-145.03;100.00;77424.19;5009326;28;20662;-75
2023/03/08 07:01:45;;;;;;;14.43;6.87;;;;;;;-145.03;100.00;77422.19;5006554;28;20808;-75
2023/03/08 07:04:11;;;;;;;13.13;6.57;;;;;;;-145.03;100.00;77414.22;5004320;28;20204;-75
2023/03/08 07:06:38;;;;;;;15.33;7.20;;;;;;;-145.03;100.00;77410.22;5006645;28;20225;-75
2023/03/08 07:09:04;;;;;;;14.60;7.63;;;;;;;-145.03;100.00;77410.22;5004089;28;20227;-75
2023/03/08 07:11:33;;;;;;;16.90;7.63;;;;;;;-145.03;100.00;77404.22;5003658;28;20677;-75
2023/03/08 07:13:59;;;;;;;10.30;6.07;;;;;;;-145.03;100.00;77406.22;5004630;28;20660;-75
2023/03/08 07:16:25;;;;;;;12.10;6.97;;;;;;;-145.03;100.00;77402.25;5002816;28;20248;-75
2023/03/08 07:18:52;;;;;;;15.53;7.23;;;;;;;-145.03;100.00;77394.25;5004855;28;20207;-75
2023/03/08 07:21:21;;;;;;;15.03;7.53;;;;;;;-145.03;100.00;77394.25;5005380;28;20205;-75
2023/03/08 07:23:50;;;;;;;12.33;6.83;;;;;;;-145.03;100.00;77390.25;5005884;28;20203;-75
2023/03/08 07:26:17;;;;;;;15.23;8.17;;;;;;;-145.03;100.00;77386.25;4992574;28;20216;-75
2023/03/08 07:28:48;;;;;;;13.67;7.07;;;;;;;-145.03;100.00;77384.28;5006984;28;20207;-75
2023/03/08 07:31:15;;;;;;;13.10;6.97;;;;;;;-145.03;100.00;77382.28;5005246;28;20228;-75
2023/03/08 07:33:41;;;;;;;15.77;7.43;;;;;;;-145.03;100.00;77376.28;5007499;28;20635;-75
2023/03/08 07:36:08;;;;;;;16.07;8.17;;;;;;;-145.03;100.00;77378.28;5005536;28;20228;-75
2023/03/08 07:38:35;;;;;;;19.93;9.13;;;;;;;-145.03;100.00;77378.28;5005572;28;20201;-75
2023/03/08 07:41:02;;;;;;;19.30;8.67;;;;;;;-145.03;100.00;77384.28;5006796;28;20204;-75
2023/03/08 07:43:29;;;;;;;19.57;10.17;;;;;;;-145.03;100.00;77378.28;4986156;28;20301;-76
2023/03/08 07:46:05;;;;;;;17.47;8.93;;;;;;;-145.03;100.00;77364.31;5000828;28;20219;-75
2023/03/08 07:48:32;;;;;;;21.47;10.10;;;;;;;-145.03;100.00;77344.34;5006305;28;20192;-75
2023/03/08 07:51:03;;;;;;;22.93;10.00;;;;;;;-145.03;100.00;77330.38;5003939;28;20275;-75
2023/03/08 07:53:29;;;;;;;18.43;9.47;;;;;;;-145.03;100.00;77326.38;5002119;28;20220;-75
2023/03/08 07:55:58;;;;;;;25.50;11.80;;;;;;;-145.03;100.00;77314.41;4988366;28;20229;-75
2023/03/08 07:58:25;;;;;;;19.60;9.33;;;;;;;-145.03;100.00;77326.38;5003873;28;20331;-75
2023/03/08 08:00:51;;;;;;;21.47;9.00;;;;;;;-145.03;100.00;77314.41;5006811;28;20196;-75
2023/03/08 08:03:20;;;;;;;23.13;12.63;;;;;;;-145.03;100.00;77300.41;5006060;28;20738;-75
2023/03/08 08:05:46;;;;;;;25.80;12.07;;;;;;;-145.03;100.00;77274.47;4994789;28;20577;-75
2023/03/08 08:08:13;;;;;;;19.63;9.37;;;;;;;-145.03;100.00;77266.47;5003440;28;20208;-75
2023/03/08 08:10:39;;;;;;;23.30;10.60;;;;;;;-145.03;100.00;77260.50;5005735;28;20204;-75
2023/03/08 08:13:06;;;;;;;22.70;9.23;;;;;;;-145.03;100.00;77262.50;5005417;28;20283;-75
2023/03/08 08:15:32;;;;;;;20.13;8.40;;;;;;;-145.03;100.00;77258.50;5005460;28;20224;-75
2023/03/08 08:17:59;;;;;;;19.87;8.63;;;;;;;-145.03;100.00;77256.50;5004647;28;20217;-75
2023/03/08 08:20:27;;;;;;;25.83;13.37;;;;;;;-145.03;100.00;77258.50;5006221;28;20208;-75
2023/03/08 08:22:54;;;;;;;22.17;10.93;;;;;;;-145.03;100.00;77242.53;5003938;28;20200;-75
2023/03/08 08:25:21;;;;;;;21.83;10.87;;;;;;;-145.03;100.00;77240.53;5005146;28;20216;-75
2023/03/08 08:27:47;;;;;;;17.80;9.50;;;;;;;-145.03;100.00;77236.53;5002646;28;20683;-75
2023/03/08 08:30:15;;;;;;;23.90;11.47;;;;;;;-145.03;100.00;77236.53;4998279;28;20260;-75
2023/03/08 08:32:41;;;;;;;24.13;10.23;;;;;;;-145.03;100.00;77222.56;5004213;28;20212;-75
2023/03/08 08:35:08;;;;;;;17.87;9.27;;;;;;;-145.03;100.00;77220.56;5002821;28;20259;-75
2023/03/08 08:37:36;;;;;;;21.00;8.47;;;;;;;-145.03;100.00;77216.56;5006596;28;20202;-75
2023/03/08 08:40:06;;;;;;;15.43;7.90;;;;;;;-145.03;100.00;77228.56;5005282;28;20204;-75
2023/03/08 08:42:33;;;;;;;23.70;9.30;;;;;;;-145.03;100.00;77228.56;5002030;28;20197;-75
2023/03/08 08:44:59;;;;;;;19.80;9.00;;;;;;;-145.03;100.00;77222.56;5004714;28;20220;-75
2023/03/08 08:47:27;;;;;;;21.07;9.40;;;;;;;-145.03;100.00;77212.59;5003193;28;20219;-75
2023/03/08 08:49:54;;;;;;;20.03;8.67;;;;;;;-145.03;100.00;77210.59;5003653;28;20198;-75
2023/03/08 08:52:20;;;;;;;20.30;9.20;;;;;;;-145.03;100.00;77194.63;5003353;28;20308;-75
2023/03/08 08:54:48;;;;;;;22.47;10.20;;;;;;;-145.03;100.00;77172.66;5005337;28;20597;-75
2023/03/08 08:57:14;;;;;;;19.80;9.23;;;;;;;-145.03;100.00;77162.69;5003299;28;20597;-75
2023/03/08 08:59:42;;;;;;;20.30;8.97;;;;;;;-145.03;100.00;77152.69;5002942;28;20560;-75
2023/03/08 09:02:11;;;;;;;17.83;8.47;;;;;;;-145.03;100.00;77140.72;4990229;28;20212;-75
2023/03/08 09:04:37;;;;;;;21.00;10.13;;;;;;;-145.03;100.00;77112.78;5002686;28;20197;-75
2023/03/08 09:07:06;;;;;;;20.83;10.50;;;;;;;-145.03;100.00;77082.81;5005340;28;20200;-75
2023/03/08 09:09:32;;;;;;;27.23;12.00;;;;;;;-145.03;100.00;77060.88;5001989;28;20201;-75
2023/03/08 09:12:00;;;;;;;23.10;11.80;;;;;;;-145.03;100.00;77046.91;5004227;28;20255;-75
2023/03/08 09:14:26;;;;;;;26.13;11.40;;;;;;;-145.03;100.00;77034.91;5005382;28;20209;-75
2023/03/08 09:16:53;;;;;;;23.53;10.53;;;;;;;-145.03;100.00;77038.91;5010221;28;20207;-75
2023/03/08 09:19:19;;;;;;;24.93;11.67;;;;;;;-145.03;100.00;77018.94;5009051;28;20193;-76
2023/03/08 09:21:45;;;;;;;23.80;10.97;;;;;;;-145.03;100.00;77024.94;5007338;28;20204;-75
2023/03/08 09:24:12;;;;;;;26.33;11.10;;;;;;;-145.03;100.00;77018.94;5006790;28;20204;-73
2023/03/08 09:26:39;;;;;;;22.70;10.87;;;;;;;-145.03;100.00;77000.97;5003780;28;20700;-77
2023/03/08 09:29:07;;;;;;;22.57;10.43;;;;;;;-145.03;100.00;76993.00;5003999;28;20209;-73
2023/03/08 09:31:35;;;;;;;20.80;9.90;;;;;;;-145.03;100.00;76979.03;5004213;28;20196;-76
2023/03/08 09:34:03;;;;;;;22.10;10.03;;;;;;;-145.03;100.00;76969.03;5005883;28;20301;-73
2023/03/08 09:36:30;;;;;;;22.10;10.57;;;;;;;-145.03;100.00;76963.06;5006902;28;20224;-76
2023/03/08 09:38:56;;;;;;;21.57;10.03;;;;;;;-145.03;100.00;76961.06;5004879;28;20215;-76
2023/03/08 09:41:46;;;;;;;21.97;10.33;;;;;;;-145.03;100.00;76953.06;5003741;28;20201;-76
2023/03/08 09:44:32;;;;;;;24.60;10.73;;;;;;;-145.03;100.00;76947.09;5005666;28;20193;-75
2023/03/08 09:47:05;;;;;;;24.30;10.77;;;;;;;-145.03;100.00;76937.09;5002913;28;20673;-76
2023/03/08 09:49:35;;;;;;;20.57;9.53;;;;;;;-145.03;100.00;76929.13;4986729;28;20557;-75
2023/03/08 09:52:09;;;;;;;22.27;10.70;;;;;;;-145.03;100.00;76927.13;5006861;28;20202;-75
2023/03/08 09:54:38;;;;;;;23.03;10.30;;;;;;;-145.03;100.00;76927.13;5002032;28;20306;-75
2023/03/08 09:57:11;;;;;;;22.70;10.87;;;;;;;-145.03;100.00;76915.16;5006866;28;20209;-75
2023/03/08 09:59:44;;;;;;;19.20;9.63;;;;;;;-145.03;100.00;76927.13;5004656;28;20208;-75
2023/03/08 10:02:25;;;;;;;19.93;10.27;;;;;;;-145.03;100.00;76913.16;5005727;28;20727;-76
2023/03/08 10:05:00;;;;;;;17.97;9.73;;;;;;;-145.03;100.00;76899.19;5002490;28;20229;-75
2023/03/08 10:07:34;;;;;;;17.60;9.00;;;;;;;-145.03;100.00;76899.19;5008561;28;20210;-74
2023/03/08 10:10:13;;;;;;;16.07;9.20;;;;;;;-145.03;100.00;76885.22;5007478;28;20209;-74
2023/03/08 10:12:49;;;;;;;17.40;9.07;;;;;;;-145.03;100.00;76877.22;5005827;28;20294;-76
2023/03/08 10:15:20;;;;;;;18.10;9.00;;;;;;;-145.03;100.00;76875.22;5000859;28;20252;-75
2023/03/08 10:17:53;;;;;;;14.47;8.03;;;;;;;-145.03;100.00;76833.31;5002244;28;20685;-76
2023/03/08 10:20:24;;;;;;;14.87;8.47;;;;;;;-145.03;100.00;76819.34;5002293;28;20205;-76
2023/03/08 10:23:00;;;;;;;13.03;7.73;;;;;;;-145.03;100.00;76819.34;5005277;28;20610;-76
2023/03/08 10:25:30;;;;;;;18.40;8.17;;;;;;;-145.03;100.00;76809.34;5005547;28;20227;-77
2023/03/08 10:27:58;;;;;;;12.50;7.43;;;;;;;-145.03;100.00;76813.34;5007658;28;20203;-77
2023/03/08 10:30:31;;;;;;;11.07;6.57;;;;;;;-145.03;100.00;76831.31;5004142;28;20197;-77
2023/03/08 10:32:59;;;;;;;10.43;5.83;;;;;;;-145.03;100.00;76821.34;5005646;28;20669;-76
2023/03/08 10:35:35;;;;;;;10.30;5.50;;;;;;;-145.03;100.00;76823.31;5005201;28;20696;-76
2023/03/08 10:38:01;;;;;;;7.67;5.20;;;;;;;-145.03;100.00;76807.34;5005544;28;20287;-77
2023/03/08 10:40:28;;;;;;;9.20;4.63;;;;;;;-145.03;100.00;76803.38;5007906;28;20748;-77
2023/03/08 10:42:59;;;;;;;8.60;5.83;;;;;;;-145.03;100.00;76787.41;5005863;28;20206;-77
2023/03/08 10:45:28;;;;;;;9.60;5.40;;;;;;;-145.03;100.00;76787.41;4988576;28;20367;-76
2023/03/08 10:47:58;;;;;;;9.77;4.90;;;;;;;-145.03;100.00;76793.38;5005012;28;20292;-76
2023/03/08 10:50:26;;;;;;;9.93;4.90;;;;;;;-145.03;100.00;76791.38;5002837;28;20287;-76
2023/03/08 10:52:53;;;;;;;7.07;4.77;;;;;;;-145.03;100.00;76797.38;5000009;28;20225;-76
2023/03/08 10:55:21;;;;;;;11.53;5.10;;;;;;;-145.03;100.00;76791.38;5004774;28;20228;-76
2023/03/08 10:57:54;;;;;;;9.27;5.70;;;;;;;-145.03;100.00;76795.38;5007300;28;20203;-76
2023/03/08 11:00:32;;;;;;;7.67;4.90;;;;;;;-145.03;100.00;76799.38;5006672;28;20417;-76
2023/03/08 11:03:07;;;;;;;5.73;4.33;;;;;;;-145.03;100.00;76807.34;5003750;28;20196;-76
2023/03/08 11:05:33;;;;;;;6.03;4.37;;;;;;;-145.03;100.00;76811.34;5004753;28;20310;-76
2023/03/08 11:08:00;;;;;;;6.63;4.10;;;;;;;-145.03;100.00;76807.34;5004048;28;20208;-76
2023/03/08 11:10:30;;;;;;;6.47;4.40;;;;;;;-145.03;100.00;76807.34;5005552;28;20918;-76